Granite City, Illinois
Current Conditions -  °F | °C
As of 7:53 PM on Saturday 22 Nov 2014 (Local Time) from KCPS Reporting Station
Light Rain Light Rain  
Wind Chill: 12°   Ceiling: 8000
Heat Index: 12°   Visibility: 10mi
Dew Point: 10°   Wind: 7mph
Humidity: 86%   Direction: 170°S
Pressure: 29.92"   Gusts: NA
Location:  38.7°N, 90.15°W
Report Text: KCPS 230153Z 17006KT 10SM -RA OVC080 12/10 A2992 RMK AO2 SLP132 P0001 T01220100
Loading
Personal Weather Stations






























Interactive Weather Map New forecast layout! Learn more

10-Day Weather Forecast

Advertisements
Track Severe Weather on mobile